Weather at Byholma Air Base [CLOSED]

Public forecast

Using degrees Celsius for public forecast. Weather courtesy of forecast.io.

Closest aviation weather report (METAR) to Byholma Air Base

Report is more than 6 hours old.

Closest report is Halmstad Airport, 26.3 nm (48.7 km) WSW.

2022/11/14 15:20 (retrieved 2 years ago)

ESMT 141520Z 14008KT 110V180 9999 OVC015 10/07 Q1019

Closest aviation forecast (TAF) to Byholma Air Base

Forecast is more than 12 hours old.

Closest forecast is Gothenburg-Landvetter Airport, 68.1 nm (126.1 km) NW.

2023/02/22 21:21 (retrieved 1 year ago)

TAF TAF ESGG 222030Z 2221/2321 15010KT 9999 BKN025 PROB40 2300/2303 2000 SNRA BKN008 BECMG 2303/2305 4000 -RADZ BR OVC006 TEMPO 2305/2321 1200 OVC003 BECMG 2314/2316 VRB03KT